Time;durP1;ratioP1;P1;durP2;ratioP2;P2;SDS_P1;SDS_P2;PMS_P1;PMS_P2;Temp;Humidity;BMP_temperature;BMP_pressure;BME280_temperature;BME280_humidity;BME280_pressure;Samples;Min_cycle;Max_cycle;Signal;HPM_P1;HPM_P2
2023/02/03 00:01:25;;;;;;;;;;;;;;;26.81;22.11;100764.97;5051005;28;1108;-32
2023/02/03 00:03:50;;;;;;;;;;;;;;;27.56;21.95;100780.53;5057392;28;1902;-33
2023/02/03 00:06:16;;;;;;;;;;;;;;;27.34;21.51;100775.00;5057140;28;916;-32
2023/02/03 00:08:41;;;;;;;;;;;;;;;26.51;22.59;100777.28;5045896;28;1047;-30
2023/02/03 00:11:06;;;;;;;;;;;;;;;27.68;21.36;100788.97;5067230;28;2235;-29
2023/02/03 00:13:32;;;;;;;;;;;;;;;27.61;21.74;100789.72;5070874;28;1144;-33
2023/02/03 00:15:58;;;;;;;;;;;;;;;27.74;21.57;100789.13;5044385;28;1005;-33
2023/02/03 00:18:23;;;;;;;;;;;;;;;28.39;20.76;100789.53;5058479;28;866;-31
2023/02/03 00:20:48;;;;;;;;;;;;;;;27.35;21.92;100785.63;5069152;28;1139;-34
2023/02/03 00:23:13;;;;;;;;;;;;;;;27.21;21.52;100781.03;5070456;28;1965;-34
2023/02/03 00:25:39;;;;;;;;;;;;;;;26.10;23.42;100770.25;5065108;28;1012;-33
2023/02/03 00:28:04;;;;;;;;;;;;;;;27.75;21.46;100766.47;5076490;28;1047;-31
2023/02/03 00:30:29;;;;;;;;;;;;;;;27.37;21.00;100778.19;5076522;28;870;-31
2023/02/03 00:32:55;;;;;;;;;;;;;;;26.78;22.08;100785.91;5076326;28;1024;-32
2023/02/03 00:35:20;;;;;;;;;;;;;;;27.31;21.88;100799.69;5076942;28;1143;-32
2023/02/03 00:37:52;;;;;;;;;;;;;;;26.97;22.12;100799.09;5058039;28;1091;-33
2023/02/03 00:40:18;;;;;;;;;;;;;;;27.00;22.14;100786.06;5073769;28;1904;-31
2023/02/03 00:42:43;;;;;;;;;;;;;;;27.72;21.22;100807.41;5060795;28;1897;-33
2023/02/03 00:45:08;;;;;;;;;;;;;;;27.16;21.97;100818.53;5076109;28;1071;-31
2023/02/03 00:47:34;;;;;;;;;;;;;;;27.03;22.13;100809.19;5076288;28;1035;-30
2023/02/03 00:49:59;;;;;;;;;;;;;;;27.17;21.93;100821.06;5068080;28;1087;-32
2023/02/03 00:52:24;;;;;;;;;;;;;;;27.34;21.63;100818.22;5058139;28;1016;-31
2023/02/03 00:54:49;;;;;;;;;;;;;;;27.46;21.47;100821.31;5076455;28;897;-32
2023/02/03 00:57:15;;;;;;;;;;;;;;;27.54;21.28;100821.25;5074650;28;1099;-30
2023/02/03 00:59:40;;;;;;;;;;;;;;;27.68;21.00;100818.72;5064889;28;1059;-34
2023/02/03 01:02:05;;;;;;;;;;;;;;;27.37;20.85;100824.09;5062404;28;1898;-34
2023/02/03 01:04:31;;;;;;;;;;;;;;;26.49;21.82;100814.41;5076344;28;1126;-32
2023/02/03 01:06:58;;;;;;;;;;;;;;;27.80;20.60;100821.84;5074830;28;942;-32
2023/02/03 01:09:23;;;;;;;;;;;;;;;26.84;21.39;100807.78;5064053;28;1055;-34
2023/02/03 01:11:49;;;;;;;;;;;;;;;26.58;21.37;100817.03;5073410;28;2114;-31
2023/02/03 01:14:14;;;;;;;;;;;;;;;27.69;20.57;100823.16;5056293;28;1067;-30
2023/02/03 01:16:39;;;;;;;;;;;;;;;27.63;20.91;100813.88;5070209;28;1112;-32
2023/02/03 01:19:05;;;;;;;;;;;;;;;28.13;20.41;100826.03;5068862;28;868;-30
2023/02/03 01:21:30;;;;;;;;;;;;;;;28.03;20.35;100826.31;5056749;28;1017;-34
2023/02/03 01:23:55;;;;;;;;;;;;;;;27.34;21.11;100821.72;5069411;28;1893;-31
2023/02/03 01:26:21;;;;;;;;;;;;;;;26.81;21.91;100824.34;5037568;28;1181;-31
2023/02/03 01:29:04;;;;;;;;;;;;;;;26.51;22.05;100825.00;5068956;28;1094;-30
2023/02/03 01:31:34;;;;;;;;;;;;;;;28.46;20.10;100826.44;5071922;28;1173;-35
2023/02/03 01:33:59;;;;;;;;;;;;;;;27.05;21.67;100812.53;5075604;28;1039;-30
2023/02/03 01:36:25;;;;;;;;;;;;;;;26.55;22.04;100810.16;5072659;28;1028;-31
2023/02/03 01:38:50;;;;;;;;;;;;;;;27.33;21.60;100811.13;5047780;28;1048;-33
2023/02/03 01:41:16;;;;;;;;;;;;;;;27.07;21.72;100813.22;5061116;28;1878;-32
2023/02/03 01:43:42;;;;;;;;;;;;;;;27.40;21.79;100820.19;5075522;28;1894;-31
2023/02/03 01:46:43;;;;;;;;;;;;;;;27.36;21.33;100818.88;5062534;28;1080;-33
2023/02/03 01:49:10;;;;;;;;;;;;;;;26.95;22.00;100830.81;4993477;28;1388;-32
2023/02/03 01:51:35;;;;;;;;;;;;;;;27.04;21.86;100821.69;5059011;28;1020;-32
2023/02/03 01:54:01;;;;;;;;;;;;;;;27.17;21.69;100825.63;5044347;28;1032;-34
2023/02/03 01:56:27;;;;;;;;;;;;;;;27.35;21.49;100826.13;5057206;28;1032;-30
2023/02/03 01:58:52;;;;;;;;;;;;;;;27.50;21.34;100828.03;5043982;28;1214;-29
2023/02/03 02:01:17;;;;;;;;;;;;;;;27.68;21.12;100829.53;5067815;28;1055;-30
2023/02/03 02:04:01;;;;;;;;;;;;;;;27.62;20.98;100820.31;5069923;28;1918;-30
2023/02/03 02:06:26;;;;;;;;;;;;;;;26.41;22.84;100818.00;5046808;28;1095;-31
2023/02/03 02:08:52;;;;;;;;;;;;;;;27.95;20.83;100819.13;5055324;28;1051;-34
2023/02/03 02:11:19;;;;;;;;;;;;;;;26.92;21.70;100821.22;5055767;28;2056;-29
2023/02/03 02:13:44;;;;;;;;;;;;;;;26.69;21.73;100826.59;5068597;28;1097;-31
2023/02/03 02:16:16;;;;;;;;;;;;;;;27.99;20.95;100831.25;5066631;28;984;-33
2023/02/03 02:19:02;;;;;;;;;;;;;;;27.91;20.78;100831.34;5053285;28;1106;-30
2023/02/03 02:21:30;;;;;;;;;;;;;;;28.12;20.49;100830.59;5033374;28;1142;-29
2023/02/03 02:24:04;;;;;;;;;;;;;;;28.26;20.26;100819.94;5067523;28;1971;-32
2023/02/03 02:26:35;;;;;;;;;;;;;;;27.50;21.46;100815.34;5040066;28;1028;-31
2023/02/03 02:29:07;;;;;;;;;;;;;;;26.76;22.34;100811.38;5053386;28;991;-31
2023/02/03 02:31:50;;;;;;;;;;;;;;;26.93;22.08;100808.53;5059193;28;871;-33
2023/02/03 02:34:22;;;;;;;;;;;;;;;28.02;20.67;100801.16;5075409;28;1031;-30
2023/02/03 02:37:05;;;;;;;;;;;;;;;26.83;21.61;100809.63;5057795;28;1032;-34
2023/02/03 02:39:51;;;;;;;;;;;;;;;27.15;21.59;100812.28;5061699;28;1050;-34
2023/02/03 02:42:19;;;;;;;;;;;;;;;26.93;21.85;100820.19;5049599;28;2187;-35
2023/02/03 02:44:51;;;;;;;;;;;;;;;27.02;21.51;100794.00;5057367;28;1053;-31
2023/02/03 02:47:18;;;;;;;;;;;;;;;27.50;21.42;100814.50;5057463;28;991;-33
2023/02/03 02:49:43;;;;;;;;;;;;;;;27.04;21.59;100815.44;5050151;28;1063;-31
2023/02/03 02:52:08;;;;;;;;;;;;;;;27.05;22.04;100803.59;5068275;28;1004;-34
2023/02/03 02:54:34;;;;;;;;;;;;;;;27.11;22.12;100805.59;5052084;28;1303;-31
2023/02/03 02:57:00;;;;;;;;;;;;;;;27.27;21.80;100810.00;5067808;28;992;-29
2023/02/03 02:59:26;;;;;;;;;;;;;;;27.44;21.59;100810.69;5052575;28;1125;-31
2023/02/03 03:01:51;;;;;;;;;;;;;;;27.52;21.57;100804.38;5058799;28;1910;-31
2023/02/03 03:04:18;;;;;;;;;;;;;;;27.42;21.56;100807.34;5064441;28;920;-31
2023/02/03 03:06:44;;;;;;;;;;;;;;;26.24;22.92;100806.41;5078022;28;1039;-32
2023/02/03 03:09:14;;;;;;;;;;;;;;;27.60;21.21;100795.31;5073740;28;1004;-35
2023/02/03 03:11:44;;;;;;;;;;;;;;;26.93;21.84;100820.19;5064565;28;2062;-30
2023/02/03 03:14:09;;;;;;;;;;;;;;;26.68;22.02;100820.38;5078053;28;1192;-36
2023/02/03 03:16:35;;;;;;;;;;;;;;;27.87;21.24;100829.03;5078292;28;1074;-31
2023/02/03 03:19:01;;;;;;;;;;;;;;;27.59;21.14;100831.50;5071768;28;1062;-31
2023/02/03 03:21:29;;;;;;;;;;;;;;;27.71;20.94;100829.22;5060261;28;1152;-32
2023/02/03 03:23:55;;;;;;;;;;;;;;;28.15;20.44;100840.19;5053530;28;1982;-31
2023/02/03 03:26:26;;;;;;;;;;;;;;;27.31;21.67;100846.41;5071637;28;1008;-34
2023/02/03 03:28:53;;;;;;;;;;;;;;;26.95;21.70;100849.69;5060530;28;1072;-33
2023/02/03 03:31:18;;;;;;;;;;;;;;;26.12;22.61;100854.50;5047905;28;920;-31
2023/02/03 03:33:44;;;;;;;;;;;;;;;28.05;20.68;100860.25;5058296;28;1063;-33
2023/02/03 03:36:17;;;;;;;;;;;;;;;27.59;20.67;100862.03;5058082;28;1067;-31
2023/02/03 03:38:49;;;;;;;;;;;;;;;26.72;21.24;100861.31;5048039;28;1104;-30
2023/02/03 03:41:15;;;;;;;;;;;;;;;27.07;21.58;100869.06;5055147;28;1889;-31
2023/02/03 03:43:42;;;;;;;;;;;;;;;27.35;21.07;100860.41;5059466;28;1955;-29
2023/02/03 03:46:09;;;;;;;;;;;;;;;27.47;21.14;100855.41;5061910;28;1116;-34
2023/02/03 03:48:52;;;;;;;;;;;;;;;27.67;20.82;100855.72;5040032;28;1153;-31
2023/02/03 03:51:18;;;;;;;;;;;;;;;27.01;21.58;100860.66;5059164;28;1157;-34
2023/02/03 03:53:44;;;;;;;;;;;;;;;26.94;21.76;100864.22;5078322;28;1111;-32
2023/02/03 03:56:12;;;;;;;;;;;;;;;27.04;21.62;100866.72;5058414;28;1163;-34
2023/02/03 03:58:38;;;;;;;;;;;;;;;27.21;21.33;100870.16;5052827;28;1021;-31
2023/02/03 04:01:04;;;;;;;;;;;;;;;27.29;21.33;100875.50;5059605;28;1015;-34
2023/02/03 04:03:36;;;;;;;;;;;;;;;27.44;21.23;100880.94;5077521;28;1961;-31
2023/02/03 04:06:01;;;;;;;;;;;;;;;27.52;21.06;100880.03;5077445;28;1027;-33
2023/02/03 04:08:26;;;;;;;;;;;;;;;27.60;20.75;100887.19;5063340;28;993;-30
2023/02/03 04:10:52;;;;;;;;;;;;;;;27.43;20.65;100881.09;5075975;28;2121;-32
2023/02/03 04:13:19;;;;;;;;;;;;;;;26.33;22.50;100885.44;5076392;28;1071;-30
2023/02/03 04:15:44;;;;;;;;;;;;;;;27.88;20.47;100878.50;5070268;28;1112;-29
2023/02/03 04:18:11;;;;;;;;;;;;;;;26.96;21.16;100876.53;5057380;28;1017;-29
2023/02/03 04:20:36;;;;;;;;;;;;;;;26.47;21.51;100883.88;5064634;28;942;-31
2023/02/03 04:23:01;;;;;;;;;;;;;;;27.67;20.82;100884.59;5063281;28;1954;-30
2023/02/03 04:25:26;;;;;;;;;;;;;;;27.49;21.27;100891.19;5056718;28;1072;-33
2023/02/03 04:27:52;;;;;;;;;;;;;;;27.39;21.15;100867.94;5070565;28;1112;-33
2023/02/03 04:30:17;;;;;;;;;;;;;;;27.97;20.39;100887.38;5071435;28;1174;-30
2023/02/03 04:32:43;;;;;;;;;;;;;;;27.24;21.48;100894.09;5076336;28;851;-32
2023/02/03 04:35:08;;;;;;;;;;;;;;;27.06;21.60;100905.19;5064831;28;1155;-32
2023/02/03 04:37:33;;;;;;;;;;;;;;;27.07;21.64;100907.72;5057056;28;1079;-33
2023/02/03 04:39:59;;;;;;;;;;;;;;;27.14;21.43;100918.63;5067579;28;1793;-34
2023/02/03 04:42:24;;;;;;;;;;;;;;;27.17;21.64;100914.72;5070228;28;1902;-29
2023/02/03 04:44:50;;;;;;;;;;;;;;;27.35;21.16;100922.53;5057156;28;928;-31
2023/02/03 04:47:15;;;;;;;;;;;;;;;27.33;19.64;100925.41;5070263;28;1127;-32
2023/02/03 04:49:40;;;;;;;;;;;;;;;27.03;19.07;100930.66;5068749;28;1128;-33
2023/02/03 04:52:06;;;;;;;;;;;;;;;26.89;18.52;100929.56;5071145;28;1092;-28
2023/02/03 04:54:31;;;;;;;;;;;;;;;26.96;19.42;100921.59;5069720;28;1151;-32
2023/02/03 04:56:56;;;;;;;;;;;;;;;27.07;19.74;100926.63;5056208;28;1101;-32
2023/02/03 04:59:21;;;;;;;;;;;;;;;27.00;20.22;100923.75;5061918;28;1212;-29
2023/02/03 05:01:47;;;;;;;;;;;;;;;27.09;20.63;100929.13;5064595;28;1910;-31
2023/02/03 05:04:12;;;;;;;;;;;;;;;27.21;20.66;100930.38;5051243;28;1136;-28
2023/02/03 05:06:37;;;;;;;;;;;;;;;27.52;20.13;100939.47;5067622;28;1000;-30
2023/02/03 05:09:03;;;;;;;;;;;;;;;27.50;19.94;100945.03;5075545;28;1539;-30
2023/02/03 05:11:28;;;;;;;;;;;;;;;28.03;19.91;100946.13;5075107;28;2618;-28
2023/02/03 05:13:53;;;;;;;;;;;;;;;28.14;19.69;100960.22;5076293;28;1150;-30
2023/02/03 05:16:19;;;;;;;;;;;;;;;28.38;19.52;100961.84;5076020;28;1042;-28
2023/02/03 05:18:44;;;;;;;;;;;;;;;28.52;19.22;100972.84;5075885;28;1104;-30
2023/02/03 05:21:09;;;;;;;;;;;;;;;27.72;19.55;100980.38;5076332;28;980;-33
2023/02/03 05:23:34;;;;;;;;;;;;;;;26.73;20.91;100982.59;5075446;28;1910;-29
2023/02/03 05:26:00;;;;;;;;;;;;;;;27.97;20.31;100982.00;5075964;28;1119;-32
2023/02/03 05:28:25;;;;;;;;;;;;;;;27.29;20.30;100974.56;5075790;28;1064;-32
2023/02/03 05:30:50;;;;;;;;;;;;;;;26.69;21.17;100973.16;5075488;28;1178;-29
2023/02/03 05:33:16;;;;;;;;;;;;;;;27.47;20.69;100972.44;5057393;28;1115;-31
2023/02/03 05:35:41;;;;;;;;;;;;;;;27.02;20.60;100967.66;5075647;28;1171;-28
2023/02/03 05:38:06;;;;;;;;;;;;;;;26.29;21.63;100976.59;5075180;28;1028;-34
2023/02/03 05:43:15;;;;;;;;;;;;;;;26.92;21.26;100977.78;5074926;28;1898;-30
2023/02/03 05:45:40;;;;;;;;;;;;;;;27.30;21.08;100978.94;5075646;28;1174;-33
2023/02/03 05:48:08;;;;;;;;;;;;;;;27.46;20.49;100989.63;5075359;28;1183;-29
2023/02/03 05:50:34;;;;;;;;;;;;;;;27.34;21.01;100994.63;5075829;28;1098;-32
2023/02/03 05:52:59;;;;;;;;;;;;;;;27.61;20.79;100992.41;5075277;28;1358;-31
2023/02/03 05:55:25;;;;;;;;;;;;;;;27.70;20.60;100998.63;5074526;28;1234;-28
2023/02/03 05:57:51;;;;;;;;;;;;;;;27.81;20.41;101000.06;5074776;28;1227;-32
2023/02/03 06:00:16;;;;;;;;;;;;;;;27.95;20.12;101001.13;5075715;28;1071;-31
2023/02/03 06:02:42;;;;;;;;;;;;;;;27.97;20.29;101007.19;5075027;28;1959;-34
2023/02/03 06:05:07;;;;;;;;;;;;;;;28.10;20.09;101005.72;5075543;28;1008;-31
2023/02/03 06:07:32;;;;;;;;;;;;;;;28.05;19.94;101011.69;5074895;28;1115;-29
2023/02/03 06:09:57;;;;;;;;;;;;;;;28.07;20.13;101014.19;5073860;28;1776;-30
2023/02/03 06:12:23;;;;;;;;;;;;;;;28.32;19.79;101011.25;5062656;28;1067;-29
2023/02/03 06:14:48;;;;;;;;;;;;;;;28.36;19.73;101015.31;5075243;28;1023;-33
2023/02/03 06:17:13;;;;;;;;;;;;;;;27.89;19.93;101004.56;5075470;28;1019;-31
2023/02/03 06:19:39;;;;;;;;;;;;;;;26.80;21.39;100996.22;5074362;28;1032;-30
2023/02/03 06:22:04;;;;;;;;;;;;;;;27.77;20.11;100998.75;5061484;28;1901;-33
2023/02/03 06:24:29;;;;;;;;;;;;;;;26.87;20.94;100997.22;5074606;28;1104;-30
2023/02/03 06:26:54;;;;;;;;;;;;;;;26.43;21.06;101005.75;5074705;28;1318;-33
2023/02/03 06:29:20;;;;;;;;;;;;;;;27.34;20.81;101016.22;5074928;28;1226;-30
2023/02/03 06:31:45;;;;;;;;;;;;;;;28.30;19.72;101026.81;5074540;28;1179;-32
2023/02/03 06:34:10;;;;;;;;;;;;;;;28.56;19.29;101028.31;5065272;28;1067;-30
2023/02/03 06:36:35;;;;;;;;;;;;;;;28.61;19.47;101028.59;5069848;28;1092;-27
2023/02/03 06:39:01;;;;;;;;;;;;;;;26.92;19.90;101036.31;5065733;28;1034;-31
2023/02/03 06:41:29;;;;;;;;;;;;;;;26.63;20.33;101033.22;5079363;28;2188;-31
2023/02/03 06:43:54;;;;;;;;;;;;;;;28.07;18.97;101014.19;5074037;28;1898;-32
2023/02/03 06:46:20;;;;;;;;;;;;;;;28.52;18.72;101043.22;5076317;28;1275;-28
2023/02/03 06:48:45;;;;;;;;;;;;;;;28.67;18.75;101048.63;5079336;28;1227;-30
2023/02/03 06:51:10;;;;;;;;;;;;;;;26.88;19.66;101043.91;5078621;28;1267;-31
2023/02/03 06:53:35;;;;;;;;;;;;;;;26.44;20.40;101050.63;5078685;28;1207;-33
2023/02/03 06:56:02;;;;;;;;;;;;;;;27.97;19.08;101039.66;5078229;28;1416;-28
2023/02/03 06:58:27;;;;;;;;;;;;;;;28.38;18.83;101045.72;5078810;28;1321;-30
2023/02/03 07:00:55;;;;;;;;;;;;;;;28.47;18.72;101033.81;5076809;28;1346;-31
2023/02/03 07:03:21;;;;;;;;;;;;;;;27.31;20.11;101054.41;5069703;28;1914;-30
2023/02/03 07:05:46;;;;;;;;;;;;;;;26.90;20.51;101055.41;5061849;28;1199;-29
2023/02/03 07:08:11;;;;;;;;;;;;;;;27.86;19.18;101018.44;5063308;28;1069;-28
2023/02/03 07:10:36;;;;;;;;;;;;;;;28.28;19.34;101043.25;5072061;28;1897;-30
2023/02/03 07:13:05;;;;;;;;;;;;;;;28.73;18.71;101042.47;5067227;28;1203;-29
2023/02/03 07:15:30;;;;;;;;;;;;;;;27.28;20.62;101048.53;5063482;28;1151;-32
2023/02/03 07:17:55;;;;;;;;;;;;;;;26.84;20.97;101058.78;5066725;28;1195;-28
2023/02/03 07:20:21;;;;;;;;;;;;;;;27.72;20.24;101045.25;5067199;28;1210;-30
2023/02/03 07:22:50;;;;;;;;;;;;;;;28.01;20.13;101058.22;5070058;28;1959;-32
2023/02/03 07:25:15;;;;;;;;;;;;;;;28.69;19.07;101052.84;5069303;28;1275;-31
2023/02/03 07:27:41;;;;;;;;;;;;;;;27.45;20.49;101055.50;5070176;28;1148;-28
2023/02/03 07:30:06;;;;;;;;;;;;;;;26.92;21.12;101050.69;5069660;28;1203;-29
2023/02/03 07:32:31;;;;;;;;;;;;;;;27.72;20.66;101047.09;5069528;28;1195;-29
2023/02/03 07:34:57;;;;;;;;;;;;;;;28.02;20.49;101049.06;5067180;28;1207;-30
2023/02/03 07:37:22;;;;;;;;;;;;;;;28.29;20.24;101049.50;5067817;28;1183;-33
2023/02/03 07:39:47;;;;;;;;;;;;;;;27.98;20.13;101045.88;5069096;28;1239;-28
2023/02/03 07:42:13;;;;;;;;;;;;;;;27.17;20.89;101049.75;5070975;28;1952;-30
2023/02/03 07:44:38;;;;;;;;;;;;;;;26.89;21.27;101035.66;5069347;28;1184;-30
2023/02/03 07:47:03;;;;;;;;;;;;;;;27.93;20.51;101041.00;5075168;28;980;-31
2023/02/03 07:49:29;;;;;;;;;;;;;;;28.14;19.99;101038.66;5068649;28;1239;-32
2023/02/03 07:51:55;;;;;;;;;;;;;;;28.71;19.57;101039.94;5066499;28;1183;-30
2023/02/03 07:54:20;;;;;;;;;;;;;;;27.51;20.71;101040.44;5064349;28;1230;-29
2023/02/03 07:56:45;;;;;;;;;;;;;;;27.27;21.04;101039.56;5077214;28;1020;-30
2023/02/03 07:59:11;;;;;;;;;;;;;;;28.06;20.36;101040.41;5059865;28;1135;-30
2023/02/03 08:01:36;;;;;;;;;;;;;;;28.32;20.20;101049.97;5062762;28;1011;-32
2023/02/03 08:04:04;;;;;;;;;;;;;;;28.60;19.87;101052.09;5063257;28;1913;-31
2023/02/03 08:06:29;;;;;;;;;;;;;;;28.06;20.18;101050.38;5068340;28;1108;-31
2023/02/03 08:08:54;;;;;;;;;;;;;;;27.45;21.12;101058.22;5072658;28;1004;-33
2023/02/03 08:11:20;;;;;;;;;;;;;;;27.24;21.22;101066.94;5066632;28;1748;-31
2023/02/03 08:13:45;;;;;;;;;;;;;;;28.40;20.45;101062.63;5068873;28;1159;-32
2023/02/03 08:16:10;;;;;;;;;;;;;;;28.76;20.10;101079.16;5073090;28;1216;-30
2023/02/03 08:18:36;;;;;;;;;;;;;;;28.87;19.73;101086.81;5065256;28;1078;-30
2023/02/03 08:21:02;;;;;;;;;;;;;;;27.51;20.92;101089.06;5075506;28;1067;-32
2023/02/03 08:23:28;;;;;;;;;;;;;;;27.50;21.28;101099.06;5057831;28;1910;-33
2023/02/03 08:25:53;;;;;;;;;;;;;;;27.15;21.67;101112.03;5073315;28;1004;-34
2023/02/03 08:28:18;;;;;;;;;;;;;;;27.55;21.62;101103.91;5065185;28;1004;-32
2023/02/03 08:30:44;;;;;;;;;;;;;;;27.83;21.04;101102.59;5075629;28;1008;-31
2023/02/03 08:33:09;;;;;;;;;;;;;;;27.97;21.30;101103.69;5065029;28;1112;-34
2023/02/03 08:35:35;;;;;;;;;;;;;;;28.39;20.55;101095.25;5063483;28;1023;-28
2023/02/03 08:38:00;;;;;;;;;;;;;;;28.02;21.02;101097.72;5071204;28;1143;-32
2023/02/03 08:40:25;;;;;;;;;;;;;;;27.46;21.26;101105.00;5066150;28;1837;-32
2023/02/03 08:42:51;;;;;;;;;;;;;;;26.89;22.24;101108.53;5070956;28;1906;-32
2023/02/03 08:45:16;;;;;;;;;;;;;;;27.87;20.98;101106.63;5071448;28;1017;-32
2023/02/03 08:47:41;;;;;;;;;;;;;;;26.97;21.60;101113.09;5076467;28;1067;-29
2023/02/03 08:50:07;;;;;;;;;;;;;;;26.77;22.05;101101.84;5063215;28;1112;-31
2023/02/03 08:52:32;;;;;;;;;;;;;;;28.30;20.25;101118.81;5073945;28;1019;-32
2023/02/03 08:54:57;;;;;;;;;;;;;;;28.47;20.57;101111.44;5065811;28;1147;-32
2023/02/03 08:57:23;;;;;;;;;;;;;;;28.14;20.29;101107.13;5075696;28;1337;-30
2023/02/03 08:59:50;;;;;;;;;;;;;;;27.13;21.62;101111.34;5076130;28;1227;-32
2023/02/03 09:02:16;;;;;;;;;;;;;;;27.43;21.67;101099.91;5075062;28;1917;-30
2023/02/03 09:04:41;;;;;;;;;;;;;;;28.46;20.55;101105.16;5076578;28;1270;-30
2023/02/03 09:07:06;;;;;;;;;;;;;;;28.60;20.34;101114.34;5075495;28;998;-30
2023/02/03 09:09:32;;;;;;;;;;;;;;;27.27;21.53;101115.19;5077802;28;1115;-31
2023/02/03 09:12:01;;;;;;;;;;;;;;;27.03;21.88;101116.97;5072538;28;2081;-32
2023/02/03 09:14:29;;;;;;;;;;;;;;;28.33;20.59;101111.19;5075761;28;1008;-31
2023/02/03 09:16:54;;;;;;;;;;;;;;;28.55;20.54;101113.19;5075546;28;933;-31
2023/02/03 09:19:19;;;;;;;;;;;;;;;27.06;21.99;101119.31;5076244;28;1038;-28
2023/02/03 09:21:47;;;;;;;;;;;;;;;27.38;21.91;101114.81;5075333;28;1051;-31
2023/02/03 09:24:13;;;;;;;;;;;;;;;28.29;20.98;101114.44;5064670;28;1963;-32
2023/02/03 09:26:38;;;;;;;;;;;;;;;28.44;20.55;101117.22;5068002;28;1116;-30
2023/02/03 09:29:03;;;;;;;;;;;;;;;27.74;20.89;101112.63;5063040;28;1214;-29
2023/02/03 09:31:29;;;;;;;;;;;;;;;27.08;22.15;101114.59;5075795;28;1114;-31
2023/02/03 09:33:55;;;;;;;;;;;;;;;26.99;22.16;101096.72;5062234;28;1159;-33
2023/02/03 09:36:20;;;;;;;;;;;;;;;26.56;22.63;101078.09;5074949;28;996;-33
2023/02/03 09:38:45;;;;;;;;;;;;;;;26.55;22.53;101100.66;5075470;28;1144;-32
2023/02/03 09:41:23;;;;;;;;;;;;;;;26.43;22.78;101087.53;5064777;28;1876;-33
2023/02/03 09:44:14;;;;;;;;;;;;;;;26.57;22.60;101091.41;5068718;28;1902;-32
2023/02/03 09:46:42;;;;;;;;;;;;;;;27.84;21.15;101088.06;5066493;28;1499;-30
2023/02/03 09:49:10;;;;;;;;;;;;;;;28.05;20.86;101090.09;5057572;28;1008;-31
2023/02/03 09:51:39;;;;;;;;;;;;;;;27.74;20.93;101091.00;5053246;28;1040;-34
2023/02/03 09:54:16;;;;;;;;;;;;;;;26.85;21.96;101091.00;5056001;28;1151;-30
2023/02/03 09:56:43;;;;;;;;;;;;;;;26.73;22.57;101089.69;5037778;28;1016;-32
2023/02/03 09:59:08;;;;;;;;;;;;;;;26.29;22.77;101089.88;5050830;28;1340;-32
2023/02/03 10:01:39;;;;;;;;;;;;;;;26.24;22.66;101088.72;5055535;28;1004;-36
2023/02/03 10:04:10;;;;;;;;;;;;;;;27.30;21.67;101051.88;5038273;28;1906;-33
2023/02/03 10:06:40;;;;;;;;;;;;;;;27.75;20.95;101074.63;5055635;28;995;-32
2023/02/03 10:09:17;;;;;;;;;;;;;;;27.92;20.65;101077.19;5073350;28;1137;-32
2023/02/03 10:12:02;;;;;;;;;;;;;;;26.82;21.72;101079.72;5077019;28;2055;-33
2023/02/03 10:14:27;;;;;;;;;;;;;;;26.13;22.96;101082.63;5059481;28;1174;-34
2023/02/03 10:17:05;;;;;;;;;;;;;;;26.17;22.79;101075.06;5072458;28;1077;-33
2023/02/03 10:19:50;;;;;;;;;;;;;;;25.88;22.90;101090.72;5047397;28;1182;-32
2023/02/03 10:22:17;;;;;;;;;;;;;;;25.91;22.96;101087.69;5063414;28;1901;-33
2023/02/03 10:24:44;;;;;;;;;;;;;;;27.54;21.06;101077.09;5058038;28;1054;-32
2023/02/03 10:27:17;;;;;;;;;;;;;;;27.90;20.78;101071.13;5062263;28;1414;-34
2023/02/03 10:29:42;;;;;;;;;;;;;;;27.98;20.39;101065.66;5059169;28;1103;-31
2023/02/03 10:32:08;;;;;;;;;;;;;;;26.57;22.13;101061.75;5072722;28;1001;-35
2023/02/03 10:34:34;;;;;;;;;;;;;;;26.67;22.07;101071.47;5046024;28;1164;-33
2023/02/03 10:37:01;;;;;;;;;;;;;;;26.15;22.67;101071.69;5072412;28;1464;-31
2023/02/03 10:39:31;;;;;;;;;;;;;;;25.95;23.11;101068.47;5066217;28;1187;-34
2023/02/03 10:41:57;;;;;;;;;;;;;;;26.36;22.97;101073.06;5061684;28;2189;-30
2023/02/03 10:44:24;;;;;;;;;;;;;;;27.56;21.37;101069.66;5064253;28;1211;-32
2023/02/03 10:46:49;;;;;;;;;;;;;;;27.67;21.03;101077.34;5049205;28;1164;-32
2023/02/03 10:49:15;;;;;;;;;;;;;;;27.35;21.17;101079.19;5068754;28;1207;-32
2023/02/03 10:51:42;;;;;;;;;;;;;;;25.91;22.92;101073.34;5068375;28;1223;-30
2023/02/03 10:54:40;;;;;;;;;;;;;;;26.41;23.02;101073.38;5053922;28;1390;-32
2023/02/03 10:57:06;;;;;;;;;;;;;;;27.43;21.19;101068.34;5032789;28;1214;-32
2023/02/03 10:59:35;;;;;;;;;;;;;;;26.31;22.35;101078.91;5053013;28;1297;-33
2023/02/03 11:02:05;;;;;;;;;;;;;;;25.74;22.71;101067.94;5073004;28;1907;-31
2023/02/03 11:04:31;;;;;;;;;;;;;;;25.93;23.13;101068.63;5050883;28;1050;-30
2023/02/03 11:07:02;;;;;;;;;;;;;;;25.78;23.51;101073.84;5067797;28;1206;-34
2023/02/03 11:09:30;;;;;;;;;;;;;;;25.75;23.44;101080.41;5068419;28;1175;-33
2023/02/03 11:12:25;;;;;;;;;;;;;;;27.22;22.15;101072.53;5051231;28;1306;-35
2023/02/03 11:14:50;;;;;;;;;;;;;;;27.70;21.29;101068.91;5055420;28;1258;-31
2023/02/03 11:17:16;;;;;;;;;;;;;;;27.66;21.47;101064.81;5072645;28;1073;-32
2023/02/03 11:19:42;;;;;;;;;;;;;;;26.20;22.94;101063.09;5066956;28;1290;-35
2023/02/03 11:22:07;;;;;;;;;;;;;;;26.40;23.26;101069.84;5051249;28;1973;-33
2023/02/03 11:24:35;;;;;;;;;;;;;;;27.69;21.59;101059.13;5069864;28;1207;-30
2023/02/03 11:27:05;;;;;;;;;;;;;;;26.93;22.10;101060.44;5068391;28;1110;-32
2023/02/03 11:29:35;;;;;;;;;;;;;;;26.41;22.66;101066.13;5049541;28;989;-32
2023/02/03 11:32:05;;;;;;;;;;;;;;;27.58;21.77;101064.88;5071512;28;1048;-33
2023/02/03 11:34:32;;;;;;;;;;;;;;;27.96;21.31;101066.88;5052490;28;1108;-32
2023/02/03 11:36:58;;;;;;;;;;;;;;;27.73;21.16;101063.13;5069809;28;1007;-35
2023/02/03 11:39:36;;;;;;;;;;;;;;;26.47;21.99;101045.75;5052812;28;1092;-33
2023/02/03 11:42:02;;;;;;;;;;;;;;;27.25;22.04;101058.66;5071346;28;2044;-30
2023/02/03 11:44:28;;;;;;;;;;;;;;;27.31;21.40;101062.50;5085043;28;1012;-31
2023/02/03 11:46:57;;;;;;;;;;;;;;;26.37;22.60;101063.94;5079190;28;1025;-32
2023/02/03 11:49:46;;;;;;;;;;;;;;;26.39;22.74;101061.94;5076977;28;1171;-31
2023/02/03 11:52:30;;;;;;;;;;;;;;;26.10;22.95;101061.41;5065822;28;1387;-34
2023/02/03 11:55:02;;;;;;;;;;;;;;;26.12;23.14;101053.16;5071666;28;1161;-32
2023/02/03 11:57:29;;;;;;;;;;;;;;;26.93;22.43;101063.16;5066852;28;1394;-34
2023/02/03 12:00:03;;;;;;;;;;;;;;;26.04;23.13;101060.22;5059775;28;1274;-33
2023/02/03 12:02:29;;;;;;;;;;;;;;;25.97;23.44;101067.31;5068048;28;1973;-33
2023/02/03 12:05:13;;;;;;;;;;;;;;;27.12;22.47;101056.53;5068620;28;1238;-33
2023/02/03 12:07:44;;;;;;;;;;;;;;;27.56;21.44;101059.66;5066411;28;1149;-33
2023/02/03 12:10:28;;;;;;;;;;;;;;;26.43;22.48;101057.88;5069749;28;1903;-35
2023/02/03 12:12:59;;;;;;;;;;;;;;;25.71;23.41;101057.50;5066098;28;913;-33
2023/02/03 12:15:27;;;;;;;;;;;;;;;27.04;22.19;101053.88;5076794;28;1122;-32
2023/02/03 12:18:08;;;;;;;;;;;;;;;26.33;22.55;101058.06;5077373;28;1016;-31
2023/02/03 12:20:52;;;;;;;;;;;;;;;25.77;23.12;101051.47;5076766;28;1071;-30
2023/02/03 12:23:23;;;;;;;;;;;;;;;27.16;22.01;101061.56;5076024;28;1906;-34
2023/02/03 12:26:01;;;;;;;;;;;;;;;27.69;21.71;101056.41;5050922;28;1160;-31
2023/02/03 12:28:41;;;;;;;;;;;;;;;27.82;21.49;101057.66;5074405;28;1239;-33
2023/02/03 12:31:12;;;;;;;;;;;;;;;26.24;22.99;101059.88;5070127;28;1239;-32
2023/02/03 12:33:39;;;;;;;;;;;;;;;26.12;23.50;101043.22;5068235;28;1187;-34
2023/02/03 12:36:07;;;;;;;;;;;;;;;27.43;21.94;101060.25;5056639;28;1290;-32
2023/02/03 12:38:38;;;;;;;;;;;;;;;27.61;21.88;101057.25;5053672;28;1207;-31
2023/02/03 12:41:05;;;;;;;;;;;;;;;25.87;23.27;101048.59;5056441;28;1016;-30
2023/02/03 12:43:36;;;;;;;;;;;;;;;26.27;23.52;101061.41;5058561;28;1902;-32
2023/02/03 12:46:06;;;;;;;;;;;;;;;27.33;22.14;101057.78;5075721;28;1154;-34
2023/02/03 12:48:35;;;;;;;;;;;;;;;27.60;21.66;101073.66;5050510;28;1025;-34
2023/02/03 12:51:01;;;;;;;;;;;;;;;26.00;23.02;101066.13;5070059;28;1215;-32
2023/02/03 12:53:29;;;;;;;;;;;;;;;25.84;23.53;101069.66;5054872;28;1247;-30